createdAt,value
2018-11-28T00:06:26.684Z,-0.96
2018-11-28T00:16:44.642Z,-1.03
2018-11-28T00:27:02.664Z,-1.00
2018-11-28T00:37:20.518Z,-1.08
2018-11-28T00:47:38.946Z,-0.99
2018-11-28T00:57:56.420Z,-1.11
2018-11-28T01:08:14.465Z,-1.09
2018-11-28T01:18:32.433Z,-0.92
2018-11-28T01:28:50.075Z,-0.88
2018-11-28T01:39:08.174Z,-1.06
2018-11-28T01:49:28.230Z,-1.14
2018-11-28T01:59:46.651Z,-1.12
2018-11-28T02:10:05.148Z,-1.52
2018-11-28T02:20:23.065Z,-1.50
2018-11-28T02:30:41.002Z,-1.69
2018-11-28T02:40:58.899Z,-1.49
2018-11-28T02:51:16.700Z,-1.22
2018-11-28T03:01:37.285Z,-1.16
2018-11-28T03:11:55.329Z,-1.24
2018-11-28T03:22:13.415Z,-1.37
2018-11-28T03:32:31.428Z,-1.23
2018-11-28T03:42:49.141Z,-1.22
2018-11-28T03:53:07.200Z,-1.30
2018-11-28T04:03:25.562Z,-1.10
2018-11-28T04:13:43.290Z,-1.31
2018-11-28T04:24:01.316Z,-1.25
2018-11-28T04:34:19.178Z,-1.16
2018-11-28T04:44:37.424Z,-0.86
2018-11-28T04:54:55.121Z,-0.88
2018-11-28T05:05:13.318Z,-1.03
2018-11-28T05:15:36.353Z,-1.12
2018-11-28T05:25:54.834Z,-1.22
2018-11-28T05:36:13.698Z,-0.96
2018-11-28T05:46:31.694Z,-1.12
2018-11-28T05:56:49.843Z,-1.12
2018-11-28T06:07:08.093Z,-1.22
2018-11-28T06:17:26.172Z,-1.08
2018-11-28T06:27:44.402Z,-1.08
2018-11-28T06:38:02.609Z,-1.14
2018-11-28T06:48:20.602Z,-1.03
2018-11-28T06:58:38.290Z,-0.98
2018-11-28T07:08:56.375Z,-0.87
2018-11-28T07:19:14.032Z,-0.96
2018-11-28T07:29:32.126Z,-1.06
2018-11-28T07:39:50.008Z,-1.28
2018-11-28T07:50:09.192Z,-1.83
2018-11-28T08:00:27.298Z,-2.08
2018-11-28T08:10:45.153Z,-2.05
2018-11-28T08:21:02.879Z,-1.75
2018-11-28T08:31:20.407Z,-1.65
2018-11-28T08:41:38.040Z,-1.44
2018-11-28T08:51:57.434Z,-1.33
2018-11-28T09:02:16.065Z,-0.91
2018-11-28T09:12:32.958Z,-0.71
2018-11-28T10:08:06.654Z,1.94
2018-11-28T10:18:24.976Z,2.55
2018-11-28T10:28:43.302Z,2.83
2018-11-28T10:39:01.812Z,3.76
2018-11-28T10:49:19.862Z,3.74
2018-11-28T10:59:37.899Z,4.67
2018-11-28T11:10:13.577Z,5.75
2018-11-28T11:20:31.529Z,5.75
2018-11-28T11:30:49.445Z,6.52
2018-11-28T12:01:36.374Z,4.56
2018-11-28T12:12:10.988Z,4.56
2018-11-28T12:22:31.851Z,4.21
2018-11-28T12:32:50.441Z,4.10
2018-11-28T12:43:10.470Z,4.33
2018-11-28T12:53:32.042Z,4.64
2018-11-28T13:04:04.891Z,5.05
2018-11-28T13:14:25.807Z,4.55
2018-11-28T13:24:44.283Z,5.25
2018-11-28T13:35:03.573Z,4.44
2018-11-28T13:45:33.035Z,3.74
2018-11-28T13:56:57.034Z,2.88
2018-11-28T14:06:15.063Z,2.12
2018-11-28T14:16:38.901Z,0.40
2018-11-28T14:26:58.929Z,-0.15
2018-11-28T14:37:21.765Z,-0.35
2018-11-28T14:47:42.062Z,-0.36
2018-11-28T14:58:00.738Z,-0.91
2018-11-28T15:09:26.223Z,-1.75
2018-11-28T15:19:45.094Z,-2.01
2018-11-28T15:30:04.091Z,-2.27
2018-11-28T15:40:23.095Z,-2.36
2018-11-28T15:50:41.593Z,-2.96
2018-11-28T16:01:01.194Z,-3.18
2018-11-28T16:11:20.637Z,-3.36
2018-11-28T16:21:39.111Z,-3.47
2018-11-28T16:31:58.960Z,-3.60
2018-11-28T16:42:17.802Z,-3.71
2018-11-28T16:52:36.472Z,-3.94
2018-11-28T17:02:56.433Z,-3.99
2018-11-28T17:13:15.526Z,-4.33
2018-11-28T17:23:35.337Z,-4.46
2018-11-28T17:33:54.913Z,-4.50
2018-11-28T17:44:13.871Z,-4.51
2018-11-28T17:54:32.938Z,-4.86
2018-11-28T18:04:53.095Z,-4.87
2018-11-28T18:15:13.625Z,-5.03
2018-11-28T18:25:35.529Z,-5.03
2018-11-28T18:35:54.628Z,-5.06
2018-11-28T18:46:22.030Z,-5.22
2018-11-28T18:56:46.904Z,-5.18
2018-11-28T19:07:07.972Z,-5.12
2018-11-28T19:17:33.176Z,-5.38
2018-11-28T19:27:57.640Z,-5.62
2018-11-28T19:38:19.505Z,-5.55
2018-11-28T19:48:42.245Z,-5.71
2018-11-28T19:59:04.935Z,-5.76
2018-11-28T20:09:30.052Z,-6.13
2018-11-28T20:19:59.769Z,-6.32
2018-11-28T20:30:44.694Z,-6.25
2018-11-28T20:41:06.041Z,-6.39
2018-11-28T20:51:34.102Z,-6.36
2018-11-28T21:01:55.710Z,-6.68
2018-11-28T21:12:17.240Z,-6.61
2018-11-28T21:22:36.481Z,-6.77
2018-11-28T21:32:56.779Z,-6.79
2018-11-28T21:43:19.427Z,-7.08
2018-11-28T21:53:38.758Z,-6.99
2018-11-28T22:03:58.116Z,-7.16
2018-11-28T22:14:16.775Z,-7.41
2018-11-28T22:24:35.598Z,-7.50
2018-11-28T22:34:53.456Z,-7.55
2018-11-28T22:45:32.129Z,-7.90
2018-11-28T22:55:50.181Z,-8.06
2018-11-28T23:06:09.804Z,-7.94
2018-11-28T23:16:28.214Z,-8.07
2018-11-28T23:26:47.268Z,-8.22
2018-11-28T23:37:06.685Z,-8.30
2018-11-28T23:47:26.454Z,-8.11
2018-11-28T23:57:45.198Z,-8.32
